sensor_id;sensor_type;location;lat;lon;timestamp;temperature;humidity
41628;DHT22;27321;50.816;6.054;2022-09-16T00:02:40;16.10;69.60
41628;DHT22;27321;50.816;6.054;2022-09-16T00:05:49;16.10;69.30
41628;DHT22;27321;50.816;6.054;2022-09-16T00:08:57;16.10;69.80
41628;DHT22;27321;50.816;6.054;2022-09-16T00:12:00;16.10;69.60
41628;DHT22;27321;50.816;6.054;2022-09-16T00:15:02;16.10;69.70
41628;DHT22;27321;50.816;6.054;2022-09-16T00:18:04;16.10;69.80
41628;DHT22;27321;50.816;6.054;2022-09-16T00:21:07;16.10;69.80
41628;DHT22;27321;50.816;6.054;2022-09-16T00:24:10;16.10;69.90
41628;DHT22;27321;50.816;6.054;2022-09-16T00:27:13;16.10;69.80
41628;DHT22;27321;50.816;6.054;2022-09-16T00:30:15;16.10;70.00
41628;DHT22;27321;50.816;6.054;2022-09-16T00:33:17;16.00;69.80
41628;DHT22;27321;50.816;6.054;2022-09-16T00:36:19;16.00;69.90
41628;DHT22;27321;50.816;6.054;2022-09-16T00:39:20;16.00;70.30
41628;DHT22;27321;50.816;6.054;2022-09-16T00:42:21;16.00;70.30
41628;DHT22;27321;50.816;6.054;2022-09-16T00:45:23;16.00;70.20
41628;DHT22;27321;50.816;6.054;2022-09-16T00:48:30;16.00;70.10
41628;DHT22;27321;50.816;6.054;2022-09-16T00:51:32;16.00;70.30
41628;DHT22;27321;50.816;6.054;2022-09-16T00:54:34;16.00;70.00
41628;DHT22;27321;50.816;6.054;2022-09-16T00:57:37;16.00;70.40
41628;DHT22;27321;50.816;6.054;2022-09-16T01:00:40;16.00;70.30
41628;DHT22;27321;50.816;6.054;2022-09-16T01:03:47;16.00;70.30
41628;DHT22;27321;50.816;6.054;2022-09-16T01:06:50;16.00;70.20
41628;DHT22;27321;50.816;6.054;2022-09-16T01:09:51;16.00;70.20
41628;DHT22;27321;50.816;6.054;2022-09-16T01:13:02;15.90;70.40
41628;DHT22;27321;50.816;6.054;2022-09-16T01:34:00;15.90;70.70
41628;DHT22;27321;50.816;6.054;2022-09-16T01:37:26;15.90;70.60
41628;DHT22;27321;50.816;6.054;2022-09-16T01:44:13;15.90;70.40
41628;DHT22;27321;50.816;6.054;2022-09-16T01:50:52;15.80;70.60
41628;DHT22;27321;50.816;6.054;2022-09-16T02:00:44;15.70;70.80
41628;DHT22;27321;50.816;6.054;2022-09-16T02:03:49;15.70;70.70
41628;DHT22;27321;50.816;6.054;2022-09-16T02:06:55;15.60;70.50
41628;DHT22;27321;50.816;6.054;2022-09-16T02:10:02;15.60;70.50
41628;DHT22;27321;50.816;6.054;2022-09-16T02:13:18;15.60;70.70
41628;DHT22;27321;50.816;6.054;2022-09-16T02:16:29;15.60;70.60
41628;DHT22;27321;50.816;6.054;2022-09-16T02:22:57;15.60;70.60
41628;DHT22;27321;50.816;6.054;2022-09-16T02:26:04;15.50;70.60
41628;DHT22;27321;50.816;6.054;2022-09-16T02:29:11;15.50;70.50
41628;DHT22;27321;50.816;6.054;2022-09-16T02:32:14;15.50;70.20
41628;DHT22;27321;50.816;6.054;2022-09-16T02:35:17;15.50;70.70
41628;DHT22;27321;50.816;6.054;2022-09-16T02:38:25;15.50;70.70
41628;DHT22;27321;50.816;6.054;2022-09-16T02:41:33;15.50;70.50
41628;DHT22;27321;50.816;6.054;2022-09-16T02:44:34;15.40;70.50
41628;DHT22;27321;50.816;6.054;2022-09-16T02:52:01;15.40;70.50
41628;DHT22;27321;50.816;6.054;2022-09-16T02:58:13;15.30;70.60
41628;DHT22;27321;50.816;6.054;2022-09-16T03:01:15;15.30;70.50
41628;DHT22;27321;50.816;6.054;2022-09-16T03:04:18;15.30;70.40
41628;DHT22;27321;50.816;6.054;2022-09-16T03:07:19;15.20;70.60
41628;DHT22;27321;50.816;6.054;2022-09-16T03:10:24;15.20;70.60
41628;DHT22;27321;50.816;6.054;2022-09-16T03:24:30;15.00;70.90
41628;DHT22;27321;50.816;6.054;2022-09-16T03:27:55;15.00;70.70
41628;DHT22;27321;50.816;6.054;2022-09-16T03:31:10;14.90;70.90
41628;DHT22;27321;50.816;6.054;2022-09-16T03:34:30;14.90;70.90
41628;DHT22;27321;50.816;6.054;2022-09-16T03:37:36;14.80;71.10
41628;DHT22;27321;50.816;6.054;2022-09-16T03:40:41;14.90;71.10
41628;DHT22;27321;50.816;6.054;2022-09-16T03:43:53;14.90;70.90
41628;DHT22;27321;50.816;6.054;2022-09-16T03:46:55;14.90;71.00
41628;DHT22;27321;50.816;6.054;2022-09-16T03:49:57;15.00;71.00
41628;DHT22;27321;50.816;6.054;2022-09-16T03:52:57;15.00;70.80
41628;DHT22;27321;50.816;6.054;2022-09-16T03:55:59;15.00;70.10
41628;DHT22;27321;50.816;6.054;2022-09-16T03:58:59;14.90;70.30
41628;DHT22;27321;50.816;6.054;2022-09-16T04:02:00;14.90;70.20
41628;DHT22;27321;50.816;6.054;2022-09-16T04:05:01;14.80;70.10
41628;DHT22;27321;50.816;6.054;2022-09-16T04:08:03;14.90;70.20
41628;DHT22;27321;50.816;6.054;2022-09-16T04:11:05;14.90;69.80
41628;DHT22;27321;50.816;6.054;2022-09-16T04:14:06;14.90;69.90
41628;DHT22;27321;50.816;6.054;2022-09-16T04:17:07;14.80;69.20
41628;DHT22;27321;50.816;6.054;2022-09-16T04:20:08;14.80;69.30
41628;DHT22;27321;50.816;6.054;2022-09-16T04:23:09;14.80;69.20
41628;DHT22;27321;50.816;6.054;2022-09-16T04:26:10;14.80;69.50
41628;DHT22;27321;50.816;6.054;2022-09-16T04:29:11;14.80;69.10
41628;DHT22;27321;50.816;6.054;2022-09-16T04:32:13;14.80;69.00
41628;DHT22;27321;50.816;6.054;2022-09-16T04:35:14;14.80;68.80
41628;DHT22;27321;50.816;6.054;2022-09-16T04:38:16;14.70;68.80
41628;DHT22;27321;50.816;6.054;2022-09-16T04:41:21;14.70;69.00
41628;DHT22;27321;50.816;6.054;2022-09-16T04:44:23;14.70;69.10
41628;DHT22;27321;50.816;6.054;2022-09-16T04:47:24;14.70;68.90
41628;DHT22;27321;50.816;6.054;2022-09-16T04:50:25;14.70;69.00
41628;DHT22;27321;50.816;6.054;2022-09-16T04:53:27;14.70;69.00
41628;DHT22;27321;50.816;6.054;2022-09-16T04:56:29;14.70;69.10
41628;DHT22;27321;50.816;6.054;2022-09-16T04:59:31;14.70;69.10
41628;DHT22;27321;50.816;6.054;2022-09-16T05:02:32;14.60;69.00
41628;DHT22;27321;50.816;6.054;2022-09-16T05:05:33;14.60;69.10
41628;DHT22;27321;50.816;6.054;2022-09-16T05:08:34;14.60;69.30
41628;DHT22;27321;50.816;6.054;2022-09-16T05:11:37;14.60;69.00
41628;DHT22;27321;50.816;6.054;2022-09-16T05:14:39;14.50;68.90
41628;DHT22;27321;50.816;6.054;2022-09-16T05:17:40;14.50;69.20
41628;DHT22;27321;50.816;6.054;2022-09-16T05:20:40;14.60;69.00
41628;DHT22;27321;50.816;6.054;2022-09-16T05:23:42;14.60;68.90
41628;DHT22;27321;50.816;6.054;2022-09-16T05:26:43;14.60;69.40
41628;DHT22;27321;50.816;6.054;2022-09-16T05:29:44;14.60;69.40
41628;DHT22;27321;50.816;6.054;2022-09-16T05:32:45;14.60;69.60
41628;DHT22;27321;50.816;6.054;2022-09-16T05:35:46;14.60;69.50
41628;DHT22;27321;50.816;6.054;2022-09-16T05:38:47;14.60;69.60
41628;DHT22;27321;50.816;6.054;2022-09-16T05:41:51;14.60;69.50
41628;DHT22;27321;50.816;6.054;2022-09-16T05:44:53;14.60;69.50
41628;DHT22;27321;50.816;6.054;2022-09-16T05:47:54;14.50;69.70
41628;DHT22;27321;50.816;6.054;2022-09-16T05:51:04;14.60;69.80
41628;DHT22;27321;50.816;6.054;2022-09-16T05:54:06;14.60;69.90
41628;DHT22;27321;50.816;6.054;2022-09-16T05:57:07;14.60;70.10
41628;DHT22;27321;50.816;6.054;2022-09-16T06:00:09;14.60;70.20
41628;DHT22;27321;50.816;6.054;2022-09-16T06:03:10;14.60;70.20
41628;DHT22;27321;50.816;6.054;2022-09-16T06:06:29;14.60;70.20
41628;DHT22;27321;50.816;6.054;2022-09-16T06:09:31;14.60;70.40
41628;DHT22;27321;50.816;6.054;2022-09-16T06:12:32;14.70;70.20
41628;DHT22;27321;50.816;6.054;2022-09-16T06:15:33;14.60;70.40
41628;DHT22;27321;50.816;6.054;2022-09-16T06:18:35;14.70;70.50
41628;DHT22;27321;50.816;6.054;2022-09-16T06:21:38;14.70;70.70
41628;DHT22;27321;50.816;6.054;2022-09-16T06:24:43;14.70;71.00
41628;DHT22;27321;50.816;6.054;2022-09-16T06:27:44;14.80;71.40
41628;DHT22;27321;50.816;6.054;2022-09-16T06:30:45;14.80;71.10
41628;DHT22;27321;50.816;6.054;2022-09-16T06:33:46;14.80;71.50
41628;DHT22;27321;50.816;6.054;2022-09-16T06:36:50;14.80;71.60
41628;DHT22;27321;50.816;6.054;2022-09-16T06:39:51;14.90;71.10
41628;DHT22;27321;50.816;6.054;2022-09-16T06:42:53;14.90;71.20
41628;DHT22;27321;50.816;6.054;2022-09-16T06:45:58;15.00;71.00
41628;DHT22;27321;50.816;6.054;2022-09-16T06:49:09;15.00;70.20
41628;DHT22;27321;50.816;6.054;2022-09-16T06:52:10;15.00;70.50
41628;DHT22;27321;50.816;6.054;2022-09-16T06:55:11;15.00;70.60
41628;DHT22;27321;50.816;6.054;2022-09-16T06:58:12;15.00;70.70
41628;DHT22;27321;50.816;6.054;2022-09-16T07:01:19;15.00;70.50
41628;DHT22;27321;50.816;6.054;2022-09-16T07:04:25;15.00;71.10
41628;DHT22;27321;50.816;6.054;2022-09-16T07:07:29;15.00;71.00
41628;DHT22;27321;50.816;6.054;2022-09-16T07:10:31;15.10;70.80
41628;DHT22;27321;50.816;6.054;2022-09-16T07:13:33;15.10;70.40
41628;DHT22;27321;50.816;6.054;2022-09-16T07:16:34;15.10;70.80
41628;DHT22;27321;50.816;6.054;2022-09-16T07:19:36;15.00;70.80
41628;DHT22;27321;50.816;6.054;2022-09-16T07:22:37;15.10;70.60
41628;DHT22;27321;50.816;6.054;2022-09-16T07:25:39;15.10;70.50
41628;DHT22;27321;50.816;6.054;2022-09-16T07:28:40;15.10;70.50
41628;DHT22;27321;50.816;6.054;2022-09-16T07:31:43;15.20;70.70
41628;DHT22;27321;50.816;6.054;2022-09-16T07:34:44;15.30;70.40
41628;DHT22;27321;50.816;6.054;2022-09-16T07:37:45;15.30;69.50
41628;DHT22;27321;50.816;6.054;2022-09-16T07:40:45;15.40;69.80
41628;DHT22;27321;50.816;6.054;2022-09-16T07:43:47;15.50;70.30
41628;DHT22;27321;50.816;6.054;2022-09-16T07:46:51;15.60;69.90
41628;DHT22;27321;50.816;6.054;2022-09-16T07:49:53;15.50;68.90
41628;DHT22;27321;50.816;6.054;2022-09-16T07:52:55;15.50;68.90
41628;DHT22;27321;50.816;6.054;2022-09-16T07:56:10;15.50;69.50
41628;DHT22;27321;50.816;6.054;2022-09-16T07:59:17;15.50;69.90
41628;DHT22;27321;50.816;6.054;2022-09-16T08:02:20;15.40;71.10
41628;DHT22;27321;50.816;6.054;2022-09-16T08:05:21;15.40;71.00
41628;DHT22;27321;50.816;6.054;2022-09-16T08:08:22;15.50;71.90
41628;DHT22;27321;50.816;6.054;2022-09-16T08:11:25;15.50;71.60
41628;DHT22;27321;50.816;6.054;2022-09-16T08:14:27;15.60;71.70
41628;DHT22;27321;50.816;6.054;2022-09-16T08:17:28;15.60;71.70
41628;DHT22;27321;50.816;6.054;2022-09-16T08:20:29;15.60;71.50
41628;DHT22;27321;50.816;6.054;2022-09-16T08:23:30;15.70;71.00
41628;DHT22;27321;50.816;6.054;2022-09-16T08:26:31;15.80;71.00
41628;DHT22;27321;50.816;6.054;2022-09-16T08:29:32;15.90;71.00
41628;DHT22;27321;50.816;6.054;2022-09-16T08:32:33;16.00;70.60
41628;DHT22;27321;50.816;6.054;2022-09-16T08:35:37;16.00;70.80
41628;DHT22;27321;50.816;6.054;2022-09-16T08:38:38;16.00;70.70
41628;DHT22;27321;50.816;6.054;2022-09-16T08:46:22;15.90;70.10
41628;DHT22;27321;50.816;6.054;2022-09-16T08:49:33;15.80;70.00
41628;DHT22;27321;50.816;6.054;2022-09-16T08:52:36;15.80;69.10
41628;DHT22;27321;50.816;6.054;2022-09-16T08:55:47;15.90;67.70
41628;DHT22;27321;50.816;6.054;2022-09-16T08:58:55;16.00;67.60
41628;DHT22;27321;50.816;6.054;2022-09-16T09:02:27;16.00;67.70
41628;DHT22;27321;50.816;6.054;2022-09-16T09:05:50;16.10;67.10
41628;DHT22;27321;50.816;6.054;2022-09-16T09:08:55;16.10;66.50
41628;DHT22;27321;50.816;6.054;2022-09-16T09:12:39;16.10;65.50
41628;DHT22;27321;50.816;6.054;2022-09-16T09:15:53;16.20;66.20
41628;DHT22;27321;50.816;6.054;2022-09-16T09:22:36;16.40;65.00
41628;DHT22;27321;50.816;6.054;2022-09-16T09:26:03;16.40;65.80
41628;DHT22;27321;50.816;6.054;2022-09-16T09:29:51;16.50;65.20
41628;DHT22;27321;50.816;6.054;2022-09-16T09:33:24;16.30;65.70
41628;DHT22;27321;50.816;6.054;2022-09-16T09:44:14;16.40;65.90
41628;DHT22;27321;50.816;6.054;2022-09-16T09:51:10;16.60;65.60
41628;DHT22;27321;50.816;6.054;2022-09-16T09:54:33;16.50;66.60
41628;DHT22;27321;50.816;6.054;2022-09-16T09:57:58;16.50;67.50
41628;DHT22;27321;50.816;6.054;2022-09-16T10:01:04;16.50;66.70
41628;DHT22;27321;50.816;6.054;2022-09-16T10:04:13;16.30;67.50
41628;DHT22;27321;50.816;6.054;2022-09-16T10:07:20;16.30;67.40
41628;DHT22;27321;50.816;6.054;2022-09-16T10:10:26;16.20;66.90
41628;DHT22;27321;50.816;6.054;2022-09-16T10:13:30;16.00;67.20
41628;DHT22;27321;50.816;6.054;2022-09-16T10:16:36;16.00;66.20
41628;DHT22;27321;50.816;6.054;2022-09-16T10:19:58;15.90;66.50
41628;DHT22;27321;50.816;6.054;2022-09-16T10:23:05;15.80;67.20
41628;DHT22;27321;50.816;6.054;2022-09-16T10:26:22;15.80;67.70
41628;DHT22;27321;50.816;6.054;2022-09-16T10:29:27;15.90;68.30
41628;DHT22;27321;50.816;6.054;2022-09-16T10:32:29;16.00;67.30
41628;DHT22;27321;50.816;6.054;2022-09-16T10:35:33;16.00;67.20
41628;DHT22;27321;50.816;6.054;2022-09-16T10:38:41;16.10;66.90
41628;DHT22;27321;50.816;6.054;2022-09-16T10:41:44;16.20;66.80
41628;DHT22;27321;50.816;6.054;2022-09-16T10:44:46;16.40;66.00
41628;DHT22;27321;50.816;6.054;2022-09-16T10:47:54;16.60;65.70
41628;DHT22;27321;50.816;6.054;2022-09-16T10:51:03;16.80;65.60
41628;DHT22;27321;50.816;6.054;2022-09-16T10:54:05;16.90;65.30
41628;DHT22;27321;50.816;6.054;2022-09-16T10:57:28;17.00;65.70
41628;DHT22;27321;50.816;6.054;2022-09-16T11:00:36;17.10;65.50
41628;DHT22;27321;50.816;6.054;2022-09-16T11:18:06;17.40;61.30
41628;DHT22;27321;50.816;6.054;2022-09-16T11:24:49;17.00;62.40
41628;DHT22;27321;50.816;6.054;2022-09-16T11:42:51;16.20;69.90
41628;DHT22;27321;50.816;6.054;2022-09-16T11:56:49;15.90;67.50
41628;DHT22;27321;50.816;6.054;2022-09-16T12:00:10;16.00;67.50
41628;DHT22;27321;50.816;6.054;2022-09-16T12:03:28;16.00;67.50
41628;DHT22;27321;50.816;6.054;2022-09-16T12:10:14;16.00;69.70
41628;DHT22;27321;50.816;6.054;2022-09-16T12:13:24;16.00;70.40
41628;DHT22;27321;50.816;6.054;2022-09-16T12:16:42;16.10;69.80
41628;DHT22;27321;50.816;6.054;2022-09-16T12:19:51;16.30;70.70
41628;DHT22;27321;50.816;6.054;2022-09-16T12:23:03;16.60;70.20
41628;DHT22;27321;50.816;6.054;2022-09-16T12:26:23;16.90;69.50
41628;DHT22;27321;50.816;6.054;2022-09-16T12:29:43;16.60;68.80
41628;DHT22;27321;50.816;6.054;2022-09-16T12:33:20;15.40;73.10
41628;DHT22;27321;50.816;6.054;2022-09-16T12:36:26;14.40;79.70
41628;DHT22;27321;50.816;6.054;2022-09-16T12:39:30;13.60;81.00
41628;DHT22;27321;50.816;6.054;2022-09-16T12:46:53;12.90;85.10
41628;DHT22;27321;50.816;6.054;2022-09-16T12:58:23;12.60;86.40
41628;DHT22;27321;50.816;6.054;2022-09-16T13:01:55;12.90;84.20
41628;DHT22;27321;50.816;6.054;2022-09-16T13:05:15;13.20;86.10
41628;DHT22;27321;50.816;6.054;2022-09-16T13:08:23;13.60;86.00
41628;DHT22;27321;50.816;6.054;2022-09-16T13:11:28;13.90;85.90
41628;DHT22;27321;50.816;6.054;2022-09-16T13:14:45;14.20;85.40
41628;DHT22;27321;50.816;6.054;2022-09-16T13:17:48;14.40;84.50
41628;DHT22;27321;50.816;6.054;2022-09-16T13:20:58;14.60;83.70
41628;DHT22;27321;50.816;6.054;2022-09-16T13:24:17;14.80;84.10
41628;DHT22;27321;50.816;6.054;2022-09-16T13:30:35;15.00;82.40
41628;DHT22;27321;50.816;6.054;2022-09-16T13:36:57;15.10;82.00
41628;DHT22;27321;50.816;6.054;2022-09-16T13:40:07;15.20;81.10
41628;DHT22;27321;50.816;6.054;2022-09-16T13:43:16;15.30;81.10
41628;DHT22;27321;50.816;6.054;2022-09-16T13:46:35;15.30;80.50
41628;DHT22;27321;50.816;6.054;2022-09-16T13:49:55;15.30;80.30
41628;DHT22;27321;50.816;6.054;2022-09-16T13:53:10;15.40;81.10
41628;DHT22;27321;50.816;6.054;2022-09-16T13:56:45;15.40;80.60
41628;DHT22;27321;50.816;6.054;2022-09-16T14:14:25;15.50;80.10
41628;DHT22;27321;50.816;6.054;2022-09-16T14:17:33;15.50;79.50
41628;DHT22;27321;50.816;6.054;2022-09-16T14:20:38;15.50;79.10
41628;DHT22;27321;50.816;6.054;2022-09-16T14:24:16;15.60;79.80
41628;DHT22;27321;50.816;6.054;2022-09-16T14:27:22;15.70;79.90
41628;DHT22;27321;50.816;6.054;2022-09-16T14:30:28;15.80;79.70
41628;DHT22;27321;50.816;6.054;2022-09-16T14:33:50;15.90;79.20
41628;DHT22;27321;50.816;6.054;2022-09-16T14:36:53;15.90;75.20
41628;DHT22;27321;50.816;6.054;2022-09-16T14:40:02;15.80;76.30
41628;DHT22;27321;50.816;6.054;2022-09-16T14:43:07;15.70;76.30
41628;DHT22;27321;50.816;6.054;2022-09-16T14:46:11;15.80;76.90
41628;DHT22;27321;50.816;6.054;2022-09-16T14:49:13;15.80;77.50
41628;DHT22;27321;50.816;6.054;2022-09-16T14:52:21;16.00;77.50
41628;DHT22;27321;50.816;6.054;2022-09-16T14:55:27;16.00;75.90
41628;DHT22;27321;50.816;6.054;2022-09-16T14:58:31;15.90;75.20
41628;DHT22;27321;50.816;6.054;2022-09-16T15:01:33;15.80;75.70
41628;DHT22;27321;50.816;6.054;2022-09-16T15:04:37;15.40;74.40
41628;DHT22;27321;50.816;6.054;2022-09-16T15:07:40;14.50;74.70
41628;DHT22;27321;50.816;6.054;2022-09-16T15:10:46;13.70;75.50
41628;DHT22;27321;50.816;6.054;2022-09-16T15:13:49;13.30;77.20
41628;DHT22;27321;50.816;6.054;2022-09-16T15:16:59;12.90;77.80
41628;DHT22;27321;50.816;6.054;2022-09-16T15:20:02;12.80;79.50
41628;DHT22;27321;50.816;6.054;2022-09-16T15:23:04;12.80;79.10
41628;DHT22;27321;50.816;6.054;2022-09-16T15:32:21;13.10;79.90
41628;DHT22;27321;50.816;6.054;2022-09-16T15:35:28;13.30;81.60
41628;DHT22;27321;50.816;6.054;2022-09-16T15:38:35;13.60;81.80
41628;DHT22;27321;50.816;6.054;2022-09-16T15:41:36;13.80;81.50
41628;DHT22;27321;50.816;6.054;2022-09-16T15:44:46;14.10;81.20
41628;DHT22;27321;50.816;6.054;2022-09-16T15:48:16;14.20;80.80
41628;DHT22;27321;50.816;6.054;2022-09-16T15:51:32;14.40;80.50
41628;DHT22;27321;50.816;6.054;2022-09-16T15:54:49;14.60;80.20
41628;DHT22;27321;50.816;6.054;2022-09-16T15:58:11;14.60;79.70
41628;DHT22;27321;50.816;6.054;2022-09-16T16:01:37;14.60;79.20
41628;DHT22;27321;50.816;6.054;2022-09-16T16:04:41;14.60;78.80
41628;DHT22;27321;50.816;6.054;2022-09-16T16:07:45;14.60;78.40
41628;DHT22;27321;50.816;6.054;2022-09-16T16:11:11;14.60;78.80
41628;DHT22;27321;50.816;6.054;2022-09-16T16:14:13;14.60;78.10
41628;DHT22;27321;50.816;6.054;2022-09-16T16:17:21;14.50;77.80
41628;DHT22;27321;50.816;6.054;2022-09-16T16:20:23;14.60;78.30
41628;DHT22;27321;50.816;6.054;2022-09-16T16:23:24;14.60;78.30
41628;DHT22;27321;50.816;6.054;2022-09-16T16:26:25;14.60;78.00
41628;DHT22;27321;50.816;6.054;2022-09-16T16:29:26;14.50;77.10
41628;DHT22;27321;50.816;6.054;2022-09-16T16:32:27;14.50;77.20
41628;DHT22;27321;50.816;6.054;2022-09-16T16:35:28;14.50;77.40
41628;DHT22;27321;50.816;6.054;2022-09-16T16:38:29;14.50;76.80
41628;DHT22;27321;50.816;6.054;2022-09-16T16:41:30;14.50;77.00
41628;DHT22;27321;50.816;6.054;2022-09-16T16:44:32;14.40;76.50
41628;DHT22;27321;50.816;6.054;2022-09-16T16:47:33;14.30;76.50
41628;DHT22;27321;50.816;6.054;2022-09-16T16:50:34;14.30;77.30
41628;DHT22;27321;50.816;6.054;2022-09-16T16:53:36;14.30;76.90
41628;DHT22;27321;50.816;6.054;2022-09-16T16:56:38;14.30;77.30
41628;DHT22;27321;50.816;6.054;2022-09-16T16:59:39;14.20;76.70
41628;DHT22;27321;50.816;6.054;2022-09-16T17:02:41;14.20;76.40
41628;DHT22;27321;50.816;6.054;2022-09-16T17:05:42;14.10;76.90
41628;DHT22;27321;50.816;6.054;2022-09-16T17:08:43;14.10;77.10
41628;DHT22;27321;50.816;6.054;2022-09-16T17:11:58;14.00;76.80
41628;DHT22;27321;50.816;6.054;2022-09-16T17:15:00;13.90;77.20
41628;DHT22;27321;50.816;6.054;2022-09-16T17:18:01;13.90;77.00
41628;DHT22;27321;50.816;6.054;2022-09-16T17:21:23;13.80;76.90
41628;DHT22;27321;50.816;6.054;2022-09-16T17:24:26;13.70;77.10
41628;DHT22;27321;50.816;6.054;2022-09-16T17:27:27;13.70;77.40
41628;DHT22;27321;50.816;6.054;2022-09-16T17:30:29;13.70;77.10
41628;DHT22;27321;50.816;6.054;2022-09-16T17:33:30;13.60;76.70
41628;DHT22;27321;50.816;6.054;2022-09-16T17:36:32;13.60;76.80
41628;DHT22;27321;50.816;6.054;2022-09-16T17:39:34;13.50;76.60
41628;DHT22;27321;50.816;6.054;2022-09-16T17:42:35;13.50;76.80
41628;DHT22;27321;50.816;6.054;2022-09-16T17:45:37;13.40;77.00
41628;DHT22;27321;50.816;6.054;2022-09-16T17:48:38;13.50;76.40
41628;DHT22;27321;50.816;6.054;2022-09-16T17:51:39;13.40;77.30
41628;DHT22;27321;50.816;6.054;2022-09-16T17:54:41;13.30;76.50
41628;DHT22;27321;50.816;6.054;2022-09-16T17:57:42;13.40;77.30
41628;DHT22;27321;50.816;6.054;2022-09-16T18:00:43;13.30;77.20
41628;DHT22;27321;50.816;6.054;2022-09-16T18:03:46;13.30;77.00
41628;DHT22;27321;50.816;6.054;2022-09-16T18:06:49;13.20;77.60
41628;DHT22;27321;50.816;6.054;2022-09-16T18:09:53;13.10;77.70
41628;DHT22;27321;50.816;6.054;2022-09-16T18:12:55;13.10;77.70
41628;DHT22;27321;50.816;6.054;2022-09-16T18:16:16;13.00;77.70
41628;DHT22;27321;50.816;6.054;2022-09-16T18:19:18;13.00;77.90
41628;DHT22;27321;50.816;6.054;2022-09-16T18:22:19;13.00;77.90
41628;DHT22;27321;50.816;6.054;2022-09-16T18:25:20;12.90;77.90
41628;DHT22;27321;50.816;6.054;2022-09-16T18:28:22;12.90;77.80
41628;DHT22;27321;50.816;6.054;2022-09-16T18:31:23;12.80;77.20
41628;DHT22;27321;50.816;6.054;2022-09-16T18:34:24;12.80;78.20
41628;DHT22;27321;50.816;6.054;2022-09-16T18:37:27;12.70;78.20
41628;DHT22;27321;50.816;6.054;2022-09-16T18:40:28;12.70;78.30
41628;DHT22;27321;50.816;6.054;2022-09-16T18:43:29;12.70;78.20
41628;DHT22;27321;50.816;6.054;2022-09-16T18:46:33;12.70;76.80
41628;DHT22;27321;50.816;6.054;2022-09-16T18:49:35;12.70;77.80
41628;DHT22;27321;50.816;6.054;2022-09-16T18:52:36;12.70;77.70
41628;DHT22;27321;50.816;6.054;2022-09-16T18:55:37;12.70;77.90
41628;DHT22;27321;50.816;6.054;2022-09-16T18:58:39;12.70;77.40
41628;DHT22;27321;50.816;6.054;2022-09-16T19:01:42;12.70;76.90
41628;DHT22;27321;50.816;6.054;2022-09-16T19:04:44;12.70;77.00
41628;DHT22;27321;50.816;6.054;2022-09-16T19:07:45;12.60;76.80
41628;DHT22;27321;50.816;6.054;2022-09-16T19:10:46;12.60;76.10
41628;DHT22;27321;50.816;6.054;2022-09-16T19:13:47;12.50;77.20
41628;DHT22;27321;50.816;6.054;2022-09-16T19:16:49;12.50;76.80
41628;DHT22;27321;50.816;6.054;2022-09-16T19:20:02;12.50;77.40
41628;DHT22;27321;50.816;6.054;2022-09-16T19:23:04;12.50;77.30
41628;DHT22;27321;50.816;6.054;2022-09-16T19:26:05;12.50;76.80
41628;DHT22;27321;50.816;6.054;2022-09-16T19:29:07;12.50;77.10
41628;DHT22;27321;50.816;6.054;2022-09-16T19:32:08;12.40;77.40
41628;DHT22;27321;50.816;6.054;2022-09-16T19:35:09;12.30;77.80
41628;DHT22;27321;50.816;6.054;2022-09-16T19:38:10;12.30;77.70
41628;DHT22;27321;50.816;6.054;2022-09-16T19:41:12;12.30;77.70
41628;DHT22;27321;50.816;6.054;2022-09-16T19:44:15;12.30;77.60
41628;DHT22;27321;50.816;6.054;2022-09-16T19:47:17;12.30;77.60
41628;DHT22;27321;50.816;6.054;2022-09-16T19:50:18;12.30;77.40
41628;DHT22;27321;50.816;6.054;2022-09-16T19:53:19;12.20;77.50
41628;DHT22;27321;50.816;6.054;2022-09-16T19:56:26;12.10;78.20
41628;DHT22;27321;50.816;6.054;2022-09-16T19:59:28;12.10;77.80
41628;DHT22;27321;50.816;6.054;2022-09-16T20:02:29;12.10;78.30
41628;DHT22;27321;50.816;6.054;2022-09-16T20:05:31;12.10;78.00
41628;DHT22;27321;50.816;6.054;2022-09-16T20:08:33;12.10;78.30
41628;DHT22;27321;50.816;6.054;2022-09-16T20:11:36;12.10;78.40
41628;DHT22;27321;50.816;6.054;2022-09-16T20:14:39;12.10;78.20
41628;DHT22;27321;50.816;6.054;2022-09-16T20:17:40;12.10;78.10
41628;DHT22;27321;50.816;6.054;2022-09-16T20:20:41;12.00;78.10
41628;DHT22;27321;50.816;6.054;2022-09-16T20:23:42;12.10;78.10
41628;DHT22;27321;50.816;6.054;2022-09-16T20:26:45;12.10;78.00
41628;DHT22;27321;50.816;6.054;2022-09-16T20:29:47;12.00;78.10
41628;DHT22;27321;50.816;6.054;2022-09-16T20:32:48;12.00;78.30
41628;DHT22;27321;50.816;6.054;2022-09-16T20:35:49;12.00;78.30
41628;DHT22;27321;50.816;6.054;2022-09-16T20:38:51;12.00;78.10
41628;DHT22;27321;50.816;6.054;2022-09-16T20:41:52;12.00;77.80
41628;DHT22;27321;50.816;6.054;2022-09-16T20:44:53;12.10;78.20
41628;DHT22;27321;50.816;6.054;2022-09-16T20:47:53;12.10;77.40
41628;DHT22;27321;50.816;6.054;2022-09-16T20:50:55;12.00;77.90
41628;DHT22;27321;50.816;6.054;2022-09-16T20:54:08;12.10;78.00
41628;DHT22;27321;50.816;6.054;2022-09-16T20:57:10;12.00;77.80
41628;DHT22;27321;50.816;6.054;2022-09-16T21:00:12;12.00;77.60
41628;DHT22;27321;50.816;6.054;2022-09-16T21:03:16;12.00;77.60
41628;DHT22;27321;50.816;6.054;2022-09-16T21:06:17;12.00;77.00
41628;DHT22;27321;50.816;6.054;2022-09-16T21:09:18;12.00;77.30
41628;DHT22;27321;50.816;6.054;2022-09-16T21:12:19;12.00;77.20
41628;DHT22;27321;50.816;6.054;2022-09-16T21:15:20;12.00;77.10
41628;DHT22;27321;50.816;6.054;2022-09-16T21:18:21;11.90;77.40
41628;DHT22;27321;50.816;6.054;2022-09-16T21:21:23;11.90;77.20
41628;DHT22;27321;50.816;6.054;2022-09-16T21:24:25;11.80;77.60
41628;DHT22;27321;50.816;6.054;2022-09-16T21:27:29;11.80;77.40
41628;DHT22;27321;50.816;6.054;2022-09-16T21:30:30;11.80;77.40
41628;DHT22;27321;50.816;6.054;2022-09-16T21:33:33;11.90;77.70
41628;DHT22;27321;50.816;6.054;2022-09-16T21:36:35;11.90;77.40
41628;DHT22;27321;50.816;6.054;2022-09-16T21:39:38;11.90;77.10
41628;DHT22;27321;50.816;6.054;2022-09-16T21:42:39;11.90;76.70
41628;DHT22;27321;50.816;6.054;2022-09-16T21:45:43;11.90;76.50
41628;DHT22;27321;50.816;6.054;2022-09-16T21:48:48;11.90;76.80
41628;DHT22;27321;50.816;6.054;2022-09-16T21:51:54;11.80;77.10
41628;DHT22;27321;50.816;6.054;2022-09-16T21:54:56;11.90;77.20
41628;DHT22;27321;50.816;6.054;2022-09-16T21:57:57;11.90;77.20
41628;DHT22;27321;50.816;6.054;2022-09-16T22:01:13;11.90;76.80
41628;DHT22;27321;50.816;6.054;2022-09-16T22:04:21;11.90;77.20
41628;DHT22;27321;50.816;6.054;2022-09-16T22:07:23;11.90;77.10
41628;DHT22;27321;50.816;6.054;2022-09-16T22:10:24;11.90;76.30
41628;DHT22;27321;50.816;6.054;2022-09-16T22:13:27;11.80;76.80